Airfield :
LOGIN :

Register | Disclaimer

   EN    FR    IT 

 










Legend :    VFR   Marginal VFR   IFR   Intensive IFR   Very Intensive IFR
Visi :
Ceiling :
>= 8 km
>= 3000ft
5 to 8 km
1000 to 3000 ft
1500m to 5 km
500 to 1000 ft
800 to 1500m
200 to 500 ft
< 800m
< 200 ft
Symbols :   Thunderstorms  Fog  Heavy snow  Heavy precipitations  Wind > 20 kt
SIGMETs :     Misc.  Thunderstorms  Icing  Turbulence  Mountain Waves  Volcanic Ashes






- Airport Elevation : 328 ft
- IATA code : PGX


LFBX - Périgueux Bassillac

CURRENT METAR :
  • 141200Z AUTO 22007KT 180V270 9999 OVC025/// //////TCU 20/16 Q1013

EXPIRED METARs :
  • 141130Z AUTO 21005KT 160V270 9999 SCT021/// OVC028/// //////TCU 20/16 Q1013
  • 141100Z AUTO 19003KT 100V270 9999 FEW016 OVC025 19/16 Q1013
  • 141030Z AUTO 20005KT 110V260 9999 OVC018/// //////TCU 19/16 Q1013
  • 141000Z AUTO 20005KT 130V240 9999 BKN014 OVC028 19/16 Q1013
  • 140930Z AUTO 21007KT 170V250 9999 BKN012/// BKN023/// OVC064/// ///TCU 18/16 Q1013
  • 140900Z AUTO 20004KT 160V260 9999 BKN013/// OVC018/// //////TCU 18/16 Q1013
  • 140830Z AUTO 21004KT 160V250 9999 BKN013/// OVC026/// //////TCU 17/16 Q1014
  • 140800Z AUTO VRB03KT 9999 BKN010/// BKN015/// OVC024/// ///CB 17/16 Q1014
  • 140730Z AUTO 21004KT 170V250 5000 RA BR BKN011/// OVC016/// //////TCU 17/16 Q1014
  • 140700Z AUTO 21003KT 160V260 4600 BR OVC012/// ///CB 16/16 Q1014

TAF N/A



MET'MAP, your aeronautical weather chart ! - Copyright ORBIFLY December 2007 - Disclaimer

ORBIFLY MET'MAP TEAM :

Programming & Development : Alexandra Zaïnal
Original concept : Baudouin d'Aumeries
Technical & hardware support : Manuel Goepfert
Assistance : Marc-Olivier Méhu




SOURCES & CREDITS :

   NOAA